Time;durP1;ratioP1;P1;durP2;ratioP2;P2;SDS_P1;SDS_P2;PMS_P1;PMS_P2;Temp;Humidity;BMP_temperature;BMP_pressure;BME280_temperature;BME280_humidity;BME280_pressure;Samples;Min_cycle;Max_cycle;Signal;HPM_P1;HPM_P2
2022/01/12 00:01:13;;;;;;;4.07;3.17;;;20.50;40.70;;;;;;5069995;28;20491;-66
2022/01/12 00:34:10;;;;;;;4.25;2.70;;;20.30;40.90;;;;;;5060308;28;20119;-65
2022/01/12 00:36:37;;;;;;;4.30;2.97;;;20.40;41.00;;;;;;5055954;28;20021;-67
2022/01/12 00:39:06;;;;;;;4.95;3.22;;;20.40;41.00;;;;;;5054389;28;20029;-67
2022/01/12 00:41:32;;;;;;;3.53;2.70;;;20.40;40.70;;;;;;5051655;28;20021;-67
2022/01/12 00:44:00;;;;;;;3.92;3.10;;;20.40;40.60;;;;;;5052439;28;20186;-67
2022/01/12 00:46:27;;;;;;;4.28;3.08;;;20.40;40.60;;;;;;5052303;28;20048;-67
2022/01/12 00:48:55;;;;;;;4.75;3.05;;;20.40;40.60;;;;;;5053696;28;20036;-67
2022/01/12 00:51:21;;;;;;;4.15;3.13;;;20.40;40.60;;;;;;5051718;28;20407;-67
2022/01/12 00:53:47;;;;;;;4.65;3.20;;;20.50;40.70;;;;;;5052517;28;20029;-67
2022/01/12 00:56:13;;;;;;;4.65;3.15;;;20.50;40.50;;;;;;5052849;28;20028;-67
2022/01/12 00:58:39;;;;;;;4.80;3.20;;;20.40;40.30;;;;;;5052260;28;20021;-67
2022/01/12 01:01:04;;;;;;;4.38;2.97;;;20.40;40.20;;;;;;5034511;28;20083;-66
2022/01/12 01:03:31;;;;;;;5.50;3.08;;;20.50;40.40;;;;;;5050373;28;20061;-66
2022/01/12 01:05:57;;;;;;;4.93;3.42;;;20.50;40.40;;;;;;5051177;28;20021;-66
2022/01/12 01:08:23;;;;;;;5.22;3.30;;;20.50;40.50;;;;;;5050518;28;20031;-66
2022/01/12 01:10:51;;;;;;;4.40;3.17;;;20.50;40.50;;;;;;5053094;28;20025;-65
2022/01/12 01:13:23;;;;;;;4.15;3.20;;;20.50;40.20;;;;;;5050909;28;20033;-66
2022/01/12 01:26:39;;;;;;;4.28;3.20;;;20.50;40.20;;;;;;5052030;28;20087;-67
2022/01/12 01:29:05;;;;;;;4.80;3.25;;;20.50;40.20;;;;;;5055191;28;20074;-68
2022/01/12 01:31:33;;;;;;;4.60;3.40;;;20.50;40.20;;;;;;5064791;28;20470;-67
2022/01/12 01:34:06;;;;;;;7.00;3.90;;;20.40;40.10;;;;;;5064268;28;20127;-67
2022/01/12 01:36:34;;;;;;;4.57;3.28;;;20.40;40.00;;;;;;5064477;28;20020;-68
2022/01/12 01:39:00;;;;;;;4.65;3.15;;;20.40;40.00;;;;;;5064139;28;20029;-68
2022/01/12 01:41:25;;;;;;;5.03;3.53;;;20.40;40.00;;;;;;5067842;28;20547;-68
2022/01/12 01:44:20;;;;;;;4.95;3.40;;;20.40;40.00;;;;;;5062784;28;20108;-67
2022/01/12 01:55:11;;;;;;;6.45;3.67;;;20.30;40.00;;;;;;5065151;28;20043;-68
2022/01/12 01:57:37;;;;;;;5.95;4.00;;;20.30;40.00;;;;;;5066229;28;20033;-67
2022/01/12 02:00:07;;;;;;;5.05;3.60;;;20.30;40.00;;;;;;5067086;28;20057;-68
2022/01/12 02:02:33;;;;;;;5.40;3.78;;;20.30;39.90;;;;;;5066000;28;20083;-67
2022/01/12 02:04:59;;;;;;;4.50;3.20;;;20.30;39.90;;;;;;5064363;28;20033;-68
2022/01/12 02:07:25;;;;;;;4.88;3.83;;;20.30;39.90;;;;;;5069218;28;20047;-68
2022/01/12 02:09:50;;;;;;;6.18;4.05;;;20.30;39.80;;;;;;5058899;28;20056;-67
2022/01/12 02:12:24;;;;;;;5.03;3.63;;;20.30;39.90;;;;;;5052004;28;20441;-68
2022/01/12 02:14:51;;;;;;;4.82;3.55;;;20.30;39.80;;;;;;5079708;28;20029;-68
2022/01/12 02:17:21;;;;;;;4.65;3.78;;;20.30;39.80;;;;;;5067289;28;20028;-67
2022/01/12 02:36:11;;;;;;;5.75;4.07;;;20.20;39.80;;;;;;5070736;28;20101;-67
2022/01/12 02:41:22;;;;;;;5.35;4.00;;;20.10;39.70;;;;;;5072139;28;20151;-68
2022/01/12 02:54:42;;;;;;;5.97;4.13;;;20.00;39.70;;;;;;5065978;28;20122;-68
2022/01/12 02:57:08;;;;;;;6.55;4.30;;;20.00;39.80;;;;;;5072244;28;20028;-68
2022/01/12 02:59:33;;;;;;;6.47;4.25;;;20.00;39.70;;;;;;5066459;28;20044;-68
2022/01/12 03:04:59;;;;;;;5.03;4.03;;;20.00;39.70;;;;;;5068695;28;20031;-68
2022/01/12 03:07:25;;;;;;;7.63;4.53;;;20.00;39.70;;;;;;5070163;28;20052;-68
2022/01/12 03:09:51;;;;;;;6.90;4.50;;;19.90;39.70;;;;;;5069373;28;20483;-68
2022/01/12 03:12:16;;;;;;;7.40;4.38;;;19.90;39.70;;;;;;5070255;28;20051;-68
2022/01/12 03:14:42;;;;;;;5.80;4.25;;;19.90;39.60;;;;;;5069421;28;20029;-68
2022/01/12 03:17:11;;;;;;;6.40;4.75;;;19.90;39.60;;;;;;5052946;28;20064;-68
2022/01/12 03:19:36;;;;;;;6.28;4.78;;;19.90;39.60;;;;;;5071641;28;20032;-67
2022/01/12 03:22:02;;;;;;;6.75;4.68;;;19.90;39.60;;;;;;5049908;28;20029;-68
2022/01/12 03:24:28;;;;;;;6.60;4.57;;;19.90;39.60;;;;;;5066727;28;20036;-68
2022/01/12 03:26:53;;;;;;;6.28;4.60;;;19.90;40.50;;;;;;5052170;28;20101;-68
2022/01/12 03:29:19;;;;;;;6.60;4.55;;;19.80;39.50;;;;;;5067200;28;20292;-68
2022/01/12 03:31:45;;;;;;;7.97;4.95;;;19.80;39.60;;;;;;5066831;28;20033;-68
2022/01/12 03:34:26;;;;;;;6.18;4.60;;;19.80;39.50;;;;;;5070240;28;20085;-69
2022/01/12 03:39:36;;;;;;;6.78;4.50;;;19.80;39.60;;;;;;5066628;28;20091;-68
2022/01/12 03:42:02;;;;;;;7.13;4.97;;;19.80;39.60;;;;;;5068540;28;20037;-68
2022/01/12 03:44:28;;;;;;;6.82;4.53;;;19.80;39.60;;;;;;5052842;28;20119;-68
2022/01/12 03:46:53;;;;;;;7.65;5.03;;;19.80;39.60;;;;;;5063806;28;20037;-68
2022/01/12 03:49:20;;;;;;;6.00;4.65;;;19.80;39.60;;;;;;5070850;28;20032;-68
2022/01/12 03:51:47;;;;;;;6.70;4.97;;;19.70;40.50;;;;;;5066106;28;20028;-68
2022/01/12 03:54:13;;;;;;;6.55;4.80;;;19.80;39.60;;;;;;5067974;28;20012;-68
2022/01/12 03:56:39;;;;;;;6.95;4.68;;;19.70;39.60;;;;;;5069080;28;20012;-68
2022/01/12 03:59:05;;;;;;;6.85;4.80;;;19.70;39.60;;;;;;5066410;28;20478;-68
2022/01/12 04:01:31;;;;;;;5.82;4.47;;;19.70;39.60;;;;;;5065770;28;20024;-68
2022/01/12 04:04:05;;;;;;;6.53;4.97;;;19.70;39.60;;;;;;5068434;28;20160;-68
2022/01/12 04:09:17;;;;;;;6.88;4.57;;;19.70;39.70;;;;;;5069878;28;20052;-68
2022/01/12 04:11:43;;;;;;;6.82;5.03;;;19.60;39.60;;;;;;5051226;28;20032;-68
2022/01/12 04:14:09;;;;;;;6.38;4.90;;;19.60;39.70;;;;;;5069532;28;20456;-68
2022/01/12 04:16:37;;;;;;;6.88;5.10;;;19.60;39.70;;;;;;5066641;28;20025;-69
2022/01/12 04:19:03;;;;;;;6.82;4.97;;;19.60;39.60;;;;;;5069403;28;20032;-69
2022/01/12 04:21:30;;;;;;;6.32;4.78;;;19.60;39.70;;;;;;5050032;28;20036;-69
2022/01/12 04:23:58;;;;;;;7.00;5.18;;;19.50;39.60;;;;;;5047237;28;20124;-69
2022/01/12 04:26:25;;;;;;;7.20;5.22;;;19.60;39.70;;;;;;5066904;28;20025;-69
2022/01/12 04:28:51;;;;;;;6.78;5.00;;;19.60;39.70;;;;;;5065058;28;20108;-69
2022/01/12 04:31:16;;;;;;;7.03;4.88;;;19.50;39.70;;;;;;5067265;28;20056;-69
2022/01/12 04:33:44;;;;;;;6.50;5.03;;;19.50;39.60;;;;;;5049084;28;20032;-69
2022/01/12 04:36:12;;;;;;;7.20;5.20;;;19.50;39.70;;;;;;5067172;28;20083;-69
2022/01/12 04:38:39;;;;;;;7.25;5.35;;;19.50;39.70;;;;;;5064135;28;20090;-69
2022/01/12 04:41:07;;;;;;;7.18;5.28;;;19.50;39.70;;;;;;5069361;28;20116;-69
2022/01/12 04:43:34;;;;;;;8.02;5.10;;;19.50;39.70;;;;;;5065157;28;20025;-69
2022/01/12 04:48:49;;;;;;;7.07;5.20;;;19.50;39.70;;;;;;5064772;28;20021;-69
2022/01/12 04:51:15;;;;;;;7.07;5.13;;;19.40;39.70;;;;;;5049579;28;20387;-69
2022/01/12 04:53:41;;;;;;;6.90;5.03;;;19.40;39.70;;;;;;5049540;28;20028;-69
2022/01/12 04:56:06;;;;;;;7.63;5.43;;;19.40;39.70;;;;;;5067418;28;20029;-69
2022/01/12 04:58:32;;;;;;;6.68;5.00;;;19.40;39.70;;;;;;5062055;28;20021;-68
2022/01/12 05:01:05;;;;;;;6.82;4.95;;;19.40;39.70;;;;;;5064573;28;20031;-68
2022/01/12 05:09:14;;;;;;;8.15;5.68;;;19.30;39.70;;;;;;5067824;28;20044;-68
2022/01/12 05:14:25;;;;;;;7.28;5.65;;;19.30;39.70;;;;;;5068516;28;20052;-67
2022/01/12 05:16:51;;;;;;;6.85;5.25;;;19.30;39.80;;;;;;5068723;28;20099;-68
2022/01/12 05:19:17;;;;;;;8.23;5.88;;;19.30;39.80;;;;;;5068021;28;20031;-68
2022/01/12 05:21:43;;;;;;;7.68;5.60;;;19.20;39.80;;;;;;5068064;28;20103;-68
2022/01/12 05:24:10;;;;;;;7.97;5.93;;;19.20;39.80;;;;;;5063249;28;20032;-68
2022/01/12 05:26:36;;;;;;;8.45;6.00;;;19.20;39.80;;;;;;5064694;28;20036;-68
2022/01/12 05:29:04;;;;;;;8.73;5.85;;;19.20;39.80;;;;;;5061898;28;20056;-68
2022/01/12 05:31:30;;;;;;;7.68;5.90;;;19.20;39.80;;;;;;5066794;28;20479;-68
2022/01/12 05:33:59;;;;;;;7.68;5.60;;;19.20;39.90;;;;;;5064715;28;20021;-68
2022/01/12 05:36:25;;;;;;;8.25;5.55;;;19.20;39.80;;;;;;5049236;28;20024;-68
2022/01/12 05:38:51;;;;;;;7.50;5.72;;;19.20;39.90;;;;;;5064204;28;20024;-68
2022/01/12 05:41:17;;;;;;;8.68;6.05;;;19.20;39.80;;;;;;5048299;28;20028;-68
2022/01/12 05:43:45;;;;;;;7.82;5.30;;;19.20;39.80;;;;;;5065659;28;20480;-69
2022/01/12 05:46:13;;;;;;;8.00;5.53;;;19.20;39.90;;;;;;5063849;28;20025;-69
2022/01/12 05:51:25;;;;;;;8.32;6.28;;;19.20;40.00;;;;;;5064759;28;20047;-69
2022/01/12 05:53:52;;;;;;;8.00;5.75;;;19.20;40.00;;;;;;5067160;28;20029;-69
2022/01/12 05:56:17;;;;;;;9.18;6.10;;;19.10;39.90;;;;;;5063106;28;20025;-69
2022/01/12 05:58:43;;;;;;;8.38;5.80;;;19.10;39.90;;;;;;5050933;28;20035;-69
2022/01/12 06:01:09;;;;;;;8.18;5.78;;;19.10;40.00;;;;;;5045934;28;20112;-69
2022/01/12 06:03:35;;;;;;;7.90;6.07;;;19.10;40.00;;;;;;5065960;28;20395;-69
2022/01/12 06:06:00;;;;;;;8.75;5.78;;;19.00;39.90;;;;;;5063124;28;20035;-69
2022/01/12 06:08:26;;;;;;;8.65;5.80;;;19.00;39.90;;;;;;5051908;28;20040;-69
2022/01/12 06:10:51;;;;;;;8.27;6.07;;;19.00;40.00;;;;;;5068724;28;20104;-69
2022/01/12 06:13:17;;;;;;;8.45;6.30;;;19.00;40.00;;;;;;5064554;28;20032;-69
2022/01/12 06:15:43;;;;;;;7.93;5.63;;;19.00;40.00;;;;;;5065250;28;20025;-68
2022/01/12 06:18:08;;;;;;;9.02;6.00;;;19.00;40.00;;;;;;5044749;28;20155;-68
2022/01/12 06:20:34;;;;;;;9.32;6.35;;;19.00;40.00;;;;;;5047231;28;20021;-68
2022/01/12 06:23:00;;;;;;;7.80;5.63;;;19.00;40.10;;;;;;5065357;28;20071;-68
2022/01/12 06:25:26;;;;;;;8.50;5.40;;;19.00;40.00;;;;;;5047196;28;20410;-69
2022/01/12 06:27:58;;;;;;;9.10;6.15;;;18.90;40.00;;;;;;5063740;28;20123;-69
2022/01/12 06:32:55;;;;;;;7.68;5.85;;;18.90;40.00;;;;;;5066663;28;20350;-69
2022/01/12 06:35:21;;;;;;;8.57;5.88;;;18.80;40.20;;;;;;5047388;28;20025;-69
2022/01/12 06:37:47;;;;;;;10.35;6.50;;;18.80;40.20;;;;;;5064799;28;20040;-69
2022/01/12 06:40:14;;;;;;;10.75;6.43;;;18.80;40.20;;;;;;5050087;28;20383;-68
2022/01/12 06:42:39;;;;;;;8.38;6.28;;;18.80;40.10;;;;;;5066443;28;20171;-69
2022/01/12 06:45:06;;;;;;;9.10;6.13;;;18.80;40.20;;;;;;5047050;28;20493;-68
2022/01/12 06:47:31;;;;;;;8.35;6.13;;;18.80;40.10;;;;;;5062377;28;20025;-68
2022/01/12 06:49:57;;;;;;;7.78;5.88;;;18.80;40.20;;;;;;5063431;28;20502;-68
2022/01/12 06:52:23;;;;;;;8.10;5.90;;;18.80;40.20;;;;;;5064738;28;20182;-68
2022/01/12 06:54:49;;;;;;;7.47;5.78;;;18.80;40.10;;;;;;5065701;28;20015;-68
2022/01/12 06:57:16;;;;;;;9.10;6.28;;;18.80;40.10;;;;;;5067896;28;20028;-68
2022/01/12 06:59:42;;;;;;;8.15;6.13;;;18.80;40.20;;;;;;5069151;28;20017;-69
2022/01/12 07:02:07;;;;;;;9.02;6.28;;;18.80;40.20;;;;;;5073089;28;20074;-69
2022/01/12 07:04:33;;;;;;;9.88;6.35;;;18.80;40.20;;;;;;5067457;28;20436;-69
2022/01/12 07:06:59;;;;;;;9.63;6.20;;;18.80;40.20;;;;;;5070290;28;20033;-69
2022/01/12 07:09:24;;;;;;;8.73;6.40;;;18.80;40.20;;;;;;5053588;28;20560;-69
2022/01/12 07:11:50;;;;;;;8.27;6.15;;;18.80;40.20;;;;;;5071221;28;20090;-68
2022/01/12 07:14:16;;;;;;;9.00;6.82;;;18.70;41.10;;;;;;5066804;28;20052;-68
2022/01/12 07:16:42;;;;;;;13.18;7.50;;;18.70;40.20;;;;;;5069787;28;20391;-68
2022/01/12 07:19:07;;;;;;;9.73;6.40;;;18.70;40.20;;;;;;5045808;28;20029;-69
2022/01/12 07:21:33;;;;;;;9.05;6.45;;;18.70;40.20;;;;;;5066422;28;20028;-69
2022/01/12 07:23:59;;;;;;;9.80;6.40;;;18.70;40.30;;;;;;5063348;28;20091;-69
2022/01/12 07:26:25;;;;;;;16.73;10.07;;;18.70;40.30;;;;;;5042785;28;20024;-68
2022/01/12 07:28:51;;;;;;;17.25;10.45;;;18.60;39.40;;;;;;5066716;28;20037;-67
2022/01/12 07:31:17;;;;;;;19.88;11.18;;;18.30;39.30;;;;;;5072632;28;20051;-67
2022/01/12 07:33:43;;;;;;;17.45;10.50;;;17.90;39.70;;;;;;5064157;28;20059;-68
2022/01/12 07:36:08;;;;;;;18.92;11.10;;;17.50;40.20;;;;;;5063881;28;20111;-68
2022/01/12 07:38:34;;;;;;;18.77;11.23;;;17.20;40.80;;;;;;5075009;28;20017;-68
2022/01/12 07:41:00;;;;;;;15.63;9.90;;;16.90;41.30;;;;;;5071483;28;20029;-68
2022/01/12 07:43:25;;;;;;;20.90;11.45;;;16.70;42.00;;;;;;5051460;28;20024;-68
2022/01/12 07:45:51;;;;;;;18.70;11.50;;;16.50;42.20;;;;;;5065078;28;20025;-69
2022/01/12 07:48:17;;;;;;;20.67;11.63;;;16.40;42.70;;;;;;5064776;28;20502;-68
2022/01/12 07:50:44;;;;;;;17.30;11.43;;;16.20;43.10;;;;;;5062094;28;20028;-68
2022/01/12 07:53:10;;;;;;;18.40;11.20;;;16.00;43.50;;;;;;5058002;28;20021;-68
2022/01/12 07:55:36;;;;;;;21.55;12.25;;;15.90;43.80;;;;;;5075070;28;20025;-68
2022/01/12 07:58:02;;;;;;;17.00;9.73;;;15.80;44.10;;;;;;5046551;28;20367;-66
2022/01/12 08:00:28;;;;;;;15.73;9.82;;;15.80;45.00;;;;;;5055173;28;20057;-67
2022/01/12 08:02:54;;;;;;;15.90;9.77;;;15.90;45.20;;;;;;5020935;28;20501;-67
2022/01/12 08:05:20;;;;;;;13.10;9.05;;;16.20;44.90;;;;;;5054384;28;20472;-67
2022/01/12 08:07:47;;;;;;;14.05;9.50;;;16.40;44.60;;;;;;5073362;28;20112;-67
2022/01/12 08:10:13;;;;;;;16.02;9.88;;;16.60;44.30;;;;;;5075148;28;20048;-67
2022/01/12 08:12:39;;;;;;;16.90;10.50;;;16.80;43.90;;;;;;5075354;28;20467;-67
2022/01/12 08:15:06;;;;;;;14.23;9.60;;;16.90;43.50;;;;;;5074891;28;20021;-67
2022/01/12 08:17:33;;;;;;;14.75;9.93;;;17.00;43.40;;;;;;5074707;28;20024;-67
2022/01/12 08:20:00;;;;;;;15.40;9.73;;;17.10;43.10;;;;;;5074810;28;20032;-66
2022/01/12 08:22:26;;;;;;;18.90;10.50;;;17.20;43.10;;;;;;5057214;28;20024;-67
2022/01/12 08:24:51;;;;;;;17.80;9.75;;;17.30;43.20;;;;;;5075187;28;20394;-69
2022/01/12 08:27:17;;;;;;;19.40;10.05;;;17.40;43.30;;;;;;5073989;28;20024;-66
2022/01/12 08:29:43;;;;;;;19.40;9.68;;;17.40;43.40;;;;;;5055160;28;20432;-66
2022/01/12 08:32:08;;;;;;;17.92;9.90;;;17.50;43.40;;;;;;5064782;28;20078;-67
2022/01/12 08:34:34;;;;;;;21.23;9.27;;;17.60;43.80;;;;;;5073251;28;20029;-68
2022/01/12 08:36:59;;;;;;;19.52;9.88;;;17.60;43.90;;;;;;5066402;28;20099;-66
2022/01/12 08:39:25;;;;;;;17.05;9.55;;;17.70;43.90;;;;;;5062606;28;20033;-68
2022/01/12 08:41:51;;;;;;;16.77;8.05;;;17.70;43.60;;;;;;5049817;28;20033;-68
2022/01/12 08:44:16;;;;;;;15.50;9.43;;;17.80;43.50;;;;;;5067918;28;20044;-66
2022/01/12 08:46:42;;;;;;;15.30;9.02;;;17.90;43.60;;;;;;5071902;28;20386;-66
2022/01/12 08:49:08;;;;;;;18.40;9.90;;;17.90;43.60;;;;;;5068353;28;20045;-67
2022/01/12 08:51:35;;;;;;;16.38;9.85;;;18.00;43.60;;;;;;5063891;28;20107;-66
2022/01/12 08:54:00;;;;;;;15.25;8.15;;;18.00;43.60;;;;;;5071637;28;20044;-66
2022/01/12 08:56:26;;;;;;;14.48;8.30;;;18.10;43.60;;;;;;5071261;28;20028;-67
2022/01/12 08:58:52;;;;;;;14.10;7.90;;;18.10;43.40;;;;;;5064444;28;20384;-67
2022/01/12 09:01:17;;;;;;;13.05;7.93;;;18.10;43.20;;;;;;5061347;28;20060;-67
2022/01/12 09:03:43;;;;;;;16.27;8.73;;;18.20;43.20;;;;;;5071339;28;20039;-67
2022/01/12 09:06:09;;;;;;;13.07;8.82;;;18.20;43.10;;;;;;5052068;28;20036;-67
2022/01/12 09:08:40;;;;;;;15.23;8.93;;;18.30;43.20;;;;;;5072005;28;20079;-67
2022/01/12 09:11:07;;;;;;;12.93;8.40;;;18.30;43.20;;;;;;5061425;28;20028;-66
2022/01/12 09:13:34;;;;;;;12.93;8.05;;;18.30;43.00;;;;;;5068049;28;20028;-66
2022/01/12 09:16:03;;;;;;;14.05;7.88;;;18.40;42.90;;;;;;5067924;28;20040;-68
2022/01/12 09:18:29;;;;;;;12.77;8.02;;;18.40;42.80;;;;;;5061772;28;20029;-67
2022/01/12 09:20:56;;;;;;;13.25;8.48;;;18.40;42.70;;;;;;5066623;28;20472;-68
2022/01/12 09:23:21;;;;;;;13.77;8.75;;;18.50;42.80;;;;;;5069282;28;20032;-68
2022/01/12 09:25:47;;;;;;;12.48;8.05;;;18.50;42.80;;;;;;5059090;28;20032;-68
2022/01/12 09:28:13;;;;;;;13.27;8.20;;;18.50;42.70;;;;;;5069220;28;20443;-68
2022/01/12 09:30:39;;;;;;;13.13;7.60;;;18.50;42.40;;;;;;5071611;28;20052;-68
2022/01/12 09:33:06;;;;;;;13.35;7.57;;;18.50;42.40;;;;;;5066851;28;20074;-68
2022/01/12 09:35:32;;;;;;;13.93;7.75;;;18.50;42.30;;;;;;5057972;28;20025;-69
2022/01/12 09:37:57;;;;;;;13.70;8.43;;;18.60;42.20;;;;;;5051252;28;20036;-69
2022/01/12 09:40:23;;;;;;;13.85;8.23;;;18.60;42.10;;;;;;5064781;28;20029;-69
2022/01/12 09:42:49;;;;;;;12.07;7.78;;;18.60;42.00;;;;;;5070651;28;20483;-67
2022/01/12 09:45:18;;;;;;;11.68;7.85;;;18.60;41.90;;;;;;5059931;28;20090;-67
2022/01/12 09:47:49;;;;;;;12.60;8.68;;;18.60;41.90;;;;;;5064617;28;20061;-67
2022/01/12 09:50:20;;;;;;;11.75;7.68;;;18.60;41.80;;;;;;5059293;28;20020;-67
2022/01/12 09:52:46;;;;;;;12.65;8.13;;;18.60;41.80;;;;;;5072441;28;20383;-67
2022/01/12 09:55:12;;;;;;;12.48;8.00;;;18.60;41.70;;;;;;5072009;28;20033;-67
2022/01/12 09:57:37;;;;;;;11.98;8.00;;;18.60;41.70;;;;;;5065119;28;20095;-67
2022/01/12 10:00:07;;;;;;;11.95;8.20;;;18.60;41.60;;;;;;5043308;28;20072;-67
2022/01/12 10:02:33;;;;;;;12.50;7.72;;;18.60;41.60;;;;;;5053789;28;20394;-67
2022/01/12 10:05:07;;;;;;;11.68;8.00;;;18.60;41.50;;;;;;5070594;28;20506;-67
2022/01/12 10:07:33;;;;;;;14.38;8.30;;;18.70;41.50;;;;;;5059598;28;20037;-67
2022/01/12 10:10:07;;;;;;;13.65;8.50;;;18.60;41.50;;;;;;5066139;28;20530;-69
2022/01/12 10:12:34;;;;;;;12.02;7.82;;;18.70;41.40;;;;;;5069796;28;20028;-69
2022/01/12 10:15:06;;;;;;;11.73;7.63;;;18.70;41.40;;;;;;5071312;28;20029;-69
2022/01/12 10:17:44;;;;;;;12.70;7.90;;;18.70;41.40;;;;;;5071601;28;20025;-67
2022/01/12 10:20:11;;;;;;;12.07;7.90;;;18.70;41.30;;;;;;5054454;28;20021;-68
2022/01/12 10:22:42;;;;;;;11.07;8.13;;;18.60;41.30;;;;;;5053011;28;20039;-67
2022/01/12 10:25:20;;;;;;;11.60;7.65;;;18.60;41.20;;;;;;5071054;28;20124;-67
2022/01/12 10:27:46;;;;;;;14.10;8.35;;;18.60;41.10;;;;;;5065189;28;20028;-69
2022/01/12 10:30:26;;;;;;;11.80;7.97;;;18.60;41.20;;;;;;5068441;28;20091;-69
2022/01/12 10:33:09;;;;;;;12.27;8.05;;;18.60;41.10;;;;;;5067154;28;20065;-69
2022/01/12 10:35:39;;;;;;;11.82;7.97;;;18.60;41.10;;;;;;5069766;28;20510;-69
2022/01/12 10:38:24;;;;;;;11.13;7.50;;;18.60;41.10;;;;;;5071402;28;20032;-69
2022/01/12 10:40:50;;;;;;;11.80;7.80;;;18.60;41.00;;;;;;5061135;28;20507;-69
2022/01/12 10:43:28;;;;;;;10.52;7.28;;;18.60;41.10;;;;;;5071361;28;20036;-67
2022/01/12 10:45:54;;;;;;;12.05;7.95;;;18.60;41.00;;;;;;5069178;28;20025;-68
2022/01/12 10:48:19;;;;;;;11.90;7.55;;;18.60;41.00;;;;;;5066909;28;20086;-67
2022/01/12 10:50:59;;;;;;;11.23;7.47;;;18.60;40.90;;;;;;5059156;28;20033;-67
2022/01/12 10:53:35;;;;;;;11.40;7.47;;;18.60;40.80;;;;;;5055191;28;20120;-67
2022/01/12 10:56:07;;;;;;;10.25;7.47;;;18.60;40.80;;;;;;5066017;28;20384;-67
2022/01/12 10:58:33;;;;;;;12.85;7.40;;;18.60;40.90;;;;;;5071245;28;20016;-67
2022/01/12 11:00:59;;;;;;;11.75;7.78;;;18.60;40.90;;;;;;5075317;28;20048;-67
2022/01/12 11:03:25;;;;;;;10.57;7.57;;;18.60;40.90;;;;;;5071032;28;20416;-69
2022/01/12 11:05:53;;;;;;;12.75;7.53;;;18.60;40.80;;;;;;5058594;28;20050;-69
2022/01/12 11:08:20;;;;;;;10.85;7.07;;;18.60;40.80;;;;;;5074028;28;20420;-69
2022/01/12 11:10:46;;;;;;;11.07;7.45;;;18.60;40.80;;;;;;5075344;28;20025;-68
2022/01/12 11:13:12;;;;;;;11.63;7.50;;;18.60;40.80;;;;;;5048224;28;20487;-69
2022/01/12 11:15:38;;;;;;;11.27;7.22;;;18.60;40.70;;;;;;5075085;28;20040;-69
2022/01/12 11:18:04;;;;;;;10.35;7.03;;;18.60;40.70;;;;;;5072097;28;20025;-69
2022/01/12 11:20:31;;;;;;;11.07;7.40;;;18.60;40.70;;;;;;5056335;28;20376;-69
2022/01/12 11:23:03;;;;;;;11.02;7.05;;;18.60;40.70;;;;;;5067430;28;20387;-67
2022/01/12 11:25:39;;;;;;;11.60;7.43;;;18.60;40.70;;;;;;5060819;28;20369;-67
2022/01/12 11:28:12;;;;;;;11.05;7.57;;;18.60;40.60;;;;;;5074842;28;20024;-69
2022/01/12 11:30:44;;;;;;;10.25;6.97;;;18.60;40.70;;;;;;5073917;28;20059;-68
2022/01/12 11:33:12;;;;;;;10.05;7.07;;;18.60;40.70;;;;;;5073477;28;20063;-67
2022/01/12 11:35:50;;;;;;;11.10;6.95;;;18.60;40.70;;;;;;5056997;28;20367;-67
2022/01/12 11:38:35;;;;;;;10.77;7.40;;;18.60;41.60;;;;;;5067470;28;20021;-67
2022/01/12 11:41:14;;;;;;;10.32;7.07;;;18.60;40.50;;;;;;5066830;28;20471;-68
2022/01/12 11:43:46;;;;;;;11.27;7.10;;;18.60;40.60;;;;;;5072966;28;20033;-68
2022/01/12 11:46:17;;;;;;;10.68;6.80;;;18.60;40.70;;;;;;5074820;28;20112;-68
2022/01/12 11:48:55;;;;;;;11.38;6.82;;;18.50;40.70;;;;;;5062364;28;20017;-67
2022/01/12 11:51:37;;;;;;;11.40;7.50;;;18.50;40.60;;;;;;5068437;28;20469;-68
2022/01/12 11:54:08;;;;;;;11.13;6.90;;;18.50;40.70;;;;;;5067841;28;20025;-67
2022/01/12 11:56:34;;;;;;;9.35;6.22;;;18.50;40.60;;;;;;5064847;28;20047;-67
2022/01/12 11:59:07;;;;;;;10.32;7.00;;;18.50;40.60;;;;;;5056722;28;20472;-68
2022/01/12 12:01:44;;;;;;;10.63;6.80;;;18.50;40.60;;;;;;5066617;28;20036;-67
2022/01/12 12:04:19;;;;;;;10.00;6.68;;;18.50;40.60;;;;;;5068762;28;20025;-68
2022/01/12 12:06:45;;;;;;;12.70;7.30;;;18.50;40.60;;;;;;5073784;28;20029;-68
2022/01/12 12:09:15;;;;;;;9.45;6.70;;;18.50;40.60;;;;;;5048503;28;20435;-68
2022/01/12 12:11:51;;;;;;;10.40;6.55;;;18.50;40.60;;;;;;5063278;28;20037;-68
2022/01/12 12:14:17;;;;;;;10.80;6.95;;;18.50;40.50;;;;;;5065160;28;20024;-67
2022/01/12 12:16:43;;;;;;;9.98;6.65;;;18.50;40.60;;;;;;5063845;28;20025;-68
2022/01/12 12:19:09;;;;;;;9.95;7.25;;;18.50;40.60;;;;;;5054662;28;20028;-67
2022/01/12 12:21:36;;;;;;;10.50;7.38;;;18.40;40.50;;;;;;5070272;28;20036;-69
2022/01/12 12:24:13;;;;;;;10.68;7.03;;;18.50;40.60;;;;;;5073018;28;20032;-69
2022/01/12 12:26:48;;;;;;;9.35;6.35;;;18.50;40.50;;;;;;5059452;28;20468;-69
2022/01/12 12:29:16;;;;;;;10.18;6.47;;;18.50;40.90;;;;;;5059459;28;20025;-69
2022/01/12 12:31:47;;;;;;;10.57;6.70;;;18.40;40.60;;;;;;5073410;28;20034;-69
2022/01/12 12:34:14;;;;;;;8.80;6.50;;;18.40;40.50;;;;;;5071151;28;20039;-69
2022/01/12 12:36:40;;;;;;;9.88;6.88;;;18.40;40.50;;;;;;5057969;28;20359;-69
2022/01/12 12:39:09;;;;;;;11.20;7.00;;;18.40;40.50;;;;;;5065921;28;20031;-69
2022/01/12 12:41:42;;;;;;;10.40;7.10;;;18.40;40.50;;;;;;5061495;28;20021;-68
2022/01/12 12:44:21;;;;;;;8.52;6.40;;;18.40;40.50;;;;;;5068578;28;20029;-68
2022/01/12 12:46:49;;;;;;;10.40;6.50;;;18.40;40.40;;;;;;5065295;28;20378;-68
2022/01/12 12:49:14;;;;;;;9.88;6.65;;;18.40;40.50;;;;;;5059380;28;20032;-67
2022/01/12 12:51:42;;;;;;;11.20;6.70;;;18.40;40.50;;;;;;5072289;28;20033;-68
2022/01/12 12:54:07;;;;;;;10.15;7.05;;;18.40;40.50;;;;;;5067269;28;20063;-68
2022/01/12 12:56:40;;;;;;;10.13;6.75;;;18.30;40.40;;;;;;5063948;28;20104;-68
2022/01/12 12:59:07;;;;;;;11.38;7.40;;;18.40;40.50;;;;;;5069314;28;20035;-68
2022/01/12 13:01:33;;;;;;;10.55;6.82;;;18.30;40.50;;;;;;5072916;28;20031;-68
2022/01/12 13:04:00;;;;;;;10.20;6.80;;;18.30;40.40;;;;;;5038518;28;20039;-69
2022/01/12 13:06:32;;;;;;;11.10;6.50;;;18.30;40.40;;;;;;5072194;28;20036;-69
2022/01/12 13:09:04;;;;;;;9.23;6.57;;;18.40;40.50;;;;;;5060487;28;20158;-69
2022/01/12 13:11:34;;;;;;;;;;;18.30;40.50;;;;;;5070306;28;20069;-69
2022/01/12 13:14:05;;;;;;;10.75;6.63;;;18.30;40.50;;;;;;5073223;28;19919;-69
2022/01/12 13:16:31;;;;;;;10.25;6.90;;;18.30;40.60;;;;;;5072551;28;20029;-69
2022/01/12 13:19:05;;;;;;;9.88;6.78;;;18.30;40.70;;;;;;5053572;28;20028;-68
2022/01/12 13:21:33;;;;;;;10.02;6.47;;;18.30;41.50;;;;;;5065101;28;20025;-68
2022/01/12 13:24:00;;;;;;;10.98;6.45;;;18.30;40.60;;;;;;5064282;28;20021;-67
2022/01/12 13:26:31;;;;;;;10.80;6.95;;;18.30;40.60;;;;;;5060907;28;20037;-67
2022/01/12 13:29:00;;;;;;;9.77;6.45;;;18.30;40.60;;;;;;5065207;28;20122;-67
2022/01/12 13:31:27;;;;;;;11.07;6.97;;;18.30;40.50;;;;;;5071977;28;20041;-67
2022/01/12 13:33:53;;;;;;;11.15;7.05;;;18.30;40.50;;;;;;5049889;28;20521;-67
2022/01/12 13:36:24;;;;;;;12.35;6.43;;;18.30;40.50;;;;;;5062680;28;20032;-67
2022/01/12 13:39:08;;;;;;;11.57;7.03;;;18.20;40.40;;;;;;5068097;28;20425;-67
2022/01/12 13:41:41;;;;;;;10.15;6.43;;;18.30;40.50;;;;;;5043557;28;20100;-69
2022/01/12 13:44:12;;;;;;;10.95;6.60;;;18.20;40.40;;;;;;5056489;28;20028;-68
2022/01/12 13:46:40;;;;;;;10.80;6.68;;;18.20;40.40;;;;;;5058132;28;20494;-67
2022/01/12 13:51:37;;;;;;;13.15;6.85;;;18.20;40.60;;;;;;5070800;28;20502;-67
2022/01/12 13:54:08;;;;;;;11.48;6.55;;;18.20;40.70;;;;;;5053528;28;20476;-68
2022/01/12 13:56:45;;;;;;;9.80;6.28;;;18.20;40.90;;;;;;5066736;28;20409;-68
2022/01/12 13:59:12;;;;;;;9.73;6.50;;;18.20;41.00;;;;;;5064454;28;20029;-68
2022/01/12 14:01:41;;;;;;;9.35;6.20;;;18.20;41.10;;;;;;5064578;28;20047;-67
2022/01/12 14:04:20;;;;;;;11.13;7.00;;;18.20;41.20;;;;;;5059492;28;20111;-67
2022/01/12 14:06:48;;;;;;;10.18;6.78;;;18.10;41.20;;;;;;5070838;28;20074;-67
2022/01/12 14:11:54;;;;;;;11.40;6.68;;;18.10;41.30;;;;;;5062342;28;20037;-68
2022/01/12 14:14:21;;;;;;;12.20;6.90;;;18.10;41.40;;;;;;5065255;28;20055;-68
2022/01/12 14:16:47;;;;;;;10.75;6.70;;;18.10;41.30;;;;;;5068606;28;20025;-69
2022/01/12 14:19:13;;;;;;;13.00;7.13;;;18.10;41.30;;;;;;5073884;28;20082;-68
2022/01/12 14:21:41;;;;;;;11.05;6.85;;;18.10;41.30;;;;;;5068484;28;20029;-68
2022/01/12 14:24:11;;;;;;;11.25;7.10;;;18.10;41.30;;;;;;5056098;28;20029;-69
2022/01/12 14:26:42;;;;;;;12.13;7.25;;;18.10;41.30;;;;;;5065423;28;20494;-69
2022/01/12 14:29:09;;;;;;;12.52;7.22;;;18.10;41.40;;;;;;5074482;28;20046;-69
2022/01/12 14:31:35;;;;;;;12.02;7.15;;;18.10;41.50;;;;;;5073920;28;20041;-67
2022/01/12 14:34:02;;;;;;;11.73;7.63;;;18.10;41.50;;;;;;5062377;28;20477;-67